Main page
METAR-TAF:

METAR-TAF

Airports :

Oran Tafraoui Airport

Tafraoui, Algeria

latitude: 35-32-33N, longitude: 000-31-56W, elevation: 112 m

Current weather observation

The report was made 45 minutes ago, at 01:00 UTC
Wind 14 kt from the West/Southwest
Temperature 13°C
Humidity 94%
Pressure 1012 hPa
Visibility: 8000 m
Scattered clouds at a height of 3000 ft
Scattered clouds at a height of 10000 ft

METAR: DAOL 200100Z 25014KT 8000 SCT030 SCT100 13/12 Q1012

Time: 02:45 (01:45 UTC)


TAF: missing

Weather observations and forecasts of more than 4000 airports (METAR and TAF reports).

The available stations are represented by yellow and red dots on the map.

Hover mouse over dot to see the name of the station.

Then click to see weather observations and forecasts.

To change the map : click on the green buttons with a black cross to zoom in, on the green button with a dash to zoom out, or on the green arrows for adjacent maps.


METAR-TAF: